sensor_id;sensor_type;location;lat;lon;timestamp;pressure;altitude;pressure_sealevel;temperature;humidity
59757;BME280;45631;51.962;5.974;2022-07-23T00:00:56;101779.56;;;16.70;98.42
59757;BME280;45631;51.962;5.974;2022-07-23T00:03:26;101774.75;;;16.76;97.96
59757;BME280;45631;51.962;5.974;2022-07-23T00:05:54;101774.50;;;16.79;97.67
59757;BME280;45631;51.962;5.974;2022-07-23T00:08:22;101773.50;;;16.68;98.60
59757;BME280;45631;51.962;5.974;2022-07-23T00:10:50;101775.19;;;16.58;99.73
59757;BME280;45631;51.962;5.974;2022-07-23T00:13:18;101769.94;;;16.45;100.00
59757;BME280;45631;51.962;5.974;2022-07-23T00:15:46;101766.78;;;16.40;100.00
59757;BME280;45631;51.962;5.974;2022-07-23T00:18:14;101764.47;;;16.35;100.00
59757;BME280;45631;51.962;5.974;2022-07-23T00:20:44;101769.56;;;16.38;100.00
59757;BME280;45631;51.962;5.974;2022-07-23T00:23:12;101768.31;;;16.31;100.00
59757;BME280;45631;51.962;5.974;2022-07-23T00:25:40;101769.53;;;16.27;100.00
59757;BME280;45631;51.962;5.974;2022-07-23T00:28:08;101772.41;;;16.24;100.00
59757;BME280;45631;51.962;5.974;2022-07-23T00:30:36;101775.75;;;16.15;100.00
59757;BME280;45631;51.962;5.974;2022-07-23T00:33:07;101765.81;;;16.05;100.00
59757;BME280;45631;51.962;5.974;2022-07-23T00:35:36;101758.59;;;16.08;100.00
59757;BME280;45631;51.962;5.974;2022-07-23T00:38:09;101767.38;;;16.08;100.00
59757;BME280;45631;51.962;5.974;2022-07-23T00:40:38;101764.06;;;15.93;100.00
59757;BME280;45631;51.962;5.974;2022-07-23T00:43:07;101766.31;;;15.86;100.00
59757;BME280;45631;51.962;5.974;2022-07-23T00:45:35;101761.22;;;15.83;100.00
59757;BME280;45631;51.962;5.974;2022-07-23T00:48:04;101766.66;;;15.82;100.00
59757;BME280;45631;51.962;5.974;2022-07-23T00:50:33;101765.91;;;15.80;100.00
59757;BME280;45631;51.962;5.974;2022-07-23T00:53:01;101762.69;;;15.75;100.00
59757;BME280;45631;51.962;5.974;2022-07-23T00:55:31;101761.34;;;15.69;100.00
59757;BME280;45631;51.962;5.974;2022-07-23T00:57:59;101761.81;;;15.63;100.00
59757;BME280;45631;51.962;5.974;2022-07-23T01:00:31;101757.63;;;15.71;100.00
59757;BME280;45631;51.962;5.974;2022-07-23T01:02:59;101753.00;;;15.62;100.00
59757;BME280;45631;51.962;5.974;2022-07-23T01:05:27;101766.69;;;15.56;100.00
59757;BME280;45631;51.962;5.974;2022-07-23T01:07:55;101762.00;;;15.60;100.00
59757;BME280;45631;51.962;5.974;2022-07-23T01:10:24;101753.69;;;15.53;100.00
59757;BME280;45631;51.962;5.974;2022-07-23T01:13:05;101755.34;;;15.54;100.00
59757;BME280;45631;51.962;5.974;2022-07-23T01:15:34;101754.63;;;15.52;100.00
59757;BME280;45631;51.962;5.974;2022-07-23T01:18:04;101759.41;;;15.47;100.00
59757;BME280;45631;51.962;5.974;2022-07-23T01:20:33;101755.91;;;15.46;100.00
59757;BME280;45631;51.962;5.974;2022-07-23T01:23:02;101747.97;;;15.46;100.00
59757;BME280;45631;51.962;5.974;2022-07-23T01:25:30;101746.38;;;15.44;100.00
59757;BME280;45631;51.962;5.974;2022-07-23T01:27:59;101748.06;;;15.45;100.00
59757;BME280;45631;51.962;5.974;2022-07-23T01:30:27;101749.03;;;15.31;100.00
59757;BME280;45631;51.962;5.974;2022-07-23T01:32:55;101756.38;;;15.27;100.00
59757;BME280;45631;51.962;5.974;2022-07-23T01:35:23;101747.06;;;15.21;100.00
59757;BME280;45631;51.962;5.974;2022-07-23T01:37:51;101737.53;;;15.19;100.00
59757;BME280;45631;51.962;5.974;2022-07-23T01:40:21;101744.94;;;15.14;100.00
59757;BME280;45631;51.962;5.974;2022-07-23T01:42:50;101744.31;;;15.10;100.00
59757;BME280;45631;51.962;5.974;2022-07-23T01:45:18;101739.00;;;15.10;100.00
59757;BME280;45631;51.962;5.974;2022-07-23T01:47:47;101741.75;;;15.09;100.00
59757;BME280;45631;51.962;5.974;2022-07-23T01:50:15;101740.28;;;15.04;100.00
59757;BME280;45631;51.962;5.974;2022-07-23T01:52:44;101745.59;;;15.04;100.00
59757;BME280;45631;51.962;5.974;2022-07-23T01:55:12;101742.59;;;15.09;100.00
59757;BME280;45631;51.962;5.974;2022-07-23T01:57:46;101743.25;;;15.13;100.00
59757;BME280;45631;51.962;5.974;2022-07-23T02:00:14;101742.81;;;15.06;100.00
59757;BME280;45631;51.962;5.974;2022-07-23T02:02:42;101740.72;;;14.98;100.00
59757;BME280;45631;51.962;5.974;2022-07-23T02:05:11;101748.75;;;14.97;100.00
59757;BME280;45631;51.962;5.974;2022-07-23T02:07:39;101744.84;;;15.02;100.00
59757;BME280;45631;51.962;5.974;2022-07-23T02:10:07;101742.22;;;15.02;100.00
59757;BME280;45631;51.962;5.974;2022-07-23T02:12:36;101742.50;;;14.98;100.00
59757;BME280;45631;51.962;5.974;2022-07-23T02:15:06;101742.50;;;14.98;100.00
59757;BME280;45631;51.962;5.974;2022-07-23T02:17:35;101740.72;;;14.98;100.00
59757;BME280;45631;51.962;5.974;2022-07-23T02:20:05;101737.84;;;15.01;100.00
59757;BME280;45631;51.962;5.974;2022-07-23T02:22:33;101737.03;;;14.75;100.00
59757;BME280;45631;51.962;5.974;2022-07-23T02:25:01;101737.84;;;14.76;100.00
59757;BME280;45631;51.962;5.974;2022-07-23T02:27:30;101744.53;;;14.81;100.00
59757;BME280;45631;51.962;5.974;2022-07-23T02:29:58;101734.44;;;14.74;100.00
59757;BME280;45631;51.962;5.974;2022-07-23T02:32:27;101731.06;;;14.72;100.00
59757;BME280;45631;51.962;5.974;2022-07-23T02:34:55;101733.94;;;14.68;100.00
59757;BME280;45631;51.962;5.974;2022-07-23T02:37:23;101735.63;;;14.69;100.00
59757;BME280;45631;51.962;5.974;2022-07-23T02:39:51;101736.25;;;14.73;100.00
59757;BME280;45631;51.962;5.974;2022-07-23T02:42:20;101738.38;;;14.68;100.00
59757;BME280;45631;51.962;5.974;2022-07-23T02:44:48;101739.97;;;14.70;100.00
59757;BME280;45631;51.962;5.974;2022-07-23T02:47:16;101737.06;;;14.61;100.00
59757;BME280;45631;51.962;5.974;2022-07-23T02:49:45;101735.63;;;14.69;100.00
59757;BME280;45631;51.962;5.974;2022-07-23T02:52:13;101739.44;;;14.65;100.00
59757;BME280;45631;51.962;5.974;2022-07-23T02:54:41;101746.06;;;14.58;100.00
59757;BME280;45631;51.962;5.974;2022-07-23T02:57:09;101739.94;;;14.58;100.00
59757;BME280;45631;51.962;5.974;2022-07-23T02:59:37;101739.63;;;14.62;100.00
59757;BME280;45631;51.962;5.974;2022-07-23T03:02:05;101740.78;;;14.58;100.00
59757;BME280;45631;51.962;5.974;2022-07-23T03:04:33;101741.28;;;14.50;100.00
59757;BME280;45631;51.962;5.974;2022-07-23T03:07:03;101738.03;;;14.47;100.00
59757;BME280;45631;51.962;5.974;2022-07-23T03:09:31;101737.03;;;14.48;100.00
59757;BME280;45631;51.962;5.974;2022-07-23T03:11:59;101748.06;;;14.54;100.00
59757;BME280;45631;51.962;5.974;2022-07-23T03:14:27;101751.69;;;14.53;100.00
59757;BME280;45631;51.962;5.974;2022-07-23T03:16:55;101744.91;;;14.49;100.00
59757;BME280;45631;51.962;5.974;2022-07-23T03:19:24;101743.09;;;14.50;100.00
59757;BME280;45631;51.962;5.974;2022-07-23T03:21:52;101741.94;;;14.41;100.00
59757;BME280;45631;51.962;5.974;2022-07-23T03:24:21;101744.31;;;14.31;100.00
59757;BME280;45631;51.962;5.974;2022-07-23T03:26:50;101744.44;;;14.30;100.00
59757;BME280;45631;51.962;5.974;2022-07-23T03:29:18;101740.84;;;14.44;100.00
59757;BME280;45631;51.962;5.974;2022-07-23T03:31:46;101749.31;;;14.36;100.00
59757;BME280;45631;51.962;5.974;2022-07-23T03:34:14;101748.88;;;14.29;100.00
59757;BME280;45631;51.962;5.974;2022-07-23T03:36:45;101745.69;;;14.24;100.00
59757;BME280;45631;51.962;5.974;2022-07-23T03:39:13;101747.50;;;14.24;100.00
59757;BME280;45631;51.962;5.974;2022-07-23T03:41:42;101747.59;;;14.22;100.00
59757;BME280;45631;51.962;5.974;2022-07-23T03:44:10;101749.28;;;14.23;100.00
59757;BME280;45631;51.962;5.974;2022-07-23T03:46:38;101751.22;;;14.34;100.00
59757;BME280;45631;51.962;5.974;2022-07-23T03:49:07;101751.91;;;14.23;100.00
59757;BME280;45631;51.962;5.974;2022-07-23T03:51:35;101755.53;;;14.22;100.00
59757;BME280;45631;51.962;5.974;2022-07-23T03:54:03;101757.06;;;14.12;100.00
59757;BME280;45631;51.962;5.974;2022-07-23T03:56:31;101769.25;;;14.14;100.00
59757;BME280;45631;51.962;5.974;2022-07-23T03:59:01;101767.31;;;14.03;100.00
59757;BME280;45631;51.962;5.974;2022-07-23T04:01:30;101770.50;;;14.09;100.00
59757;BME280;45631;51.962;5.974;2022-07-23T04:03:58;101761.81;;;14.07;100.00
59757;BME280;45631;51.962;5.974;2022-07-23T04:06:26;101758.34;;;14.06;100.00
59757;BME280;45631;51.962;5.974;2022-07-23T04:08:54;101764.97;;;13.99;100.00
59757;BME280;45631;51.962;5.974;2022-07-23T04:11:22;101761.56;;;13.97;100.00
59757;BME280;45631;51.962;5.974;2022-07-23T04:13:50;101765.47;;;13.91;100.00
59757;BME280;45631;51.962;5.974;2022-07-23T04:16:20;101770.75;;;13.91;100.00
59757;BME280;45631;51.962;5.974;2022-07-23T04:18:48;101751.47;;;13.89;100.00
59757;BME280;45631;51.962;5.974;2022-07-23T04:21:16;101750.59;;;14.03;100.00
59757;BME280;45631;51.962;5.974;2022-07-23T04:23:44;101753.63;;;13.97;100.00
59757;BME280;45631;51.962;5.974;2022-07-23T04:26:12;101757.78;;;14.01;100.00
59757;BME280;45631;51.962;5.974;2022-07-23T04:28:43;101752.38;;;14.02;100.00
59757;BME280;45631;51.962;5.974;2022-07-23T04:31:11;101754.81;;;14.06;100.00
59757;BME280;45631;51.962;5.974;2022-07-23T04:33:41;101753.31;;;14.01;100.00
59757;BME280;45631;51.962;5.974;2022-07-23T04:36:09;101761.47;;;13.98;100.00
59757;BME280;45631;51.962;5.974;2022-07-23T04:38:37;101759.63;;;14.13;100.00
59757;BME280;45631;51.962;5.974;2022-07-23T04:41:05;101759.00;;;14.10;100.00
59757;BME280;45631;51.962;5.974;2022-07-23T04:43:33;101762.47;;;14.10;100.00
59757;BME280;45631;51.962;5.974;2022-07-23T04:46:01;101765.13;;;14.10;100.00
59757;BME280;45631;51.962;5.974;2022-07-23T04:48:29;101772.94;;;14.12;100.00
59757;BME280;45631;51.962;5.974;2022-07-23T04:50:59;101776.16;;;14.17;100.00
59757;BME280;45631;51.962;5.974;2022-07-23T04:53:28;101774.88;;;14.10;100.00
59757;BME280;45631;51.962;5.974;2022-07-23T04:55:56;101770.00;;;14.16;100.00
59757;BME280;45631;51.962;5.974;2022-07-23T04:58:24;101773.72;;;14.14;100.00
59757;BME280;45631;51.962;5.974;2022-07-23T05:00:52;101774.75;;;14.11;100.00
59757;BME280;45631;51.962;5.974;2022-07-23T05:03:20;101773.88;;;14.11;100.00
59757;BME280;45631;51.962;5.974;2022-07-23T05:05:48;101770.25;;;14.26;100.00
59757;BME280;45631;51.962;5.974;2022-07-23T05:08:17;101767.41;;;14.29;100.00
59757;BME280;45631;51.962;5.974;2022-07-23T05:10:46;101762.22;;;14.28;100.00
59757;BME280;45631;51.962;5.974;2022-07-23T05:13:15;101765.19;;;14.36;100.00
59757;BME280;45631;51.962;5.974;2022-07-23T05:15:43;101770.94;;;14.43;100.00
59757;BME280;45631;51.962;5.974;2022-07-23T05:18:12;101768.19;;;14.57;100.00
59757;BME280;45631;51.962;5.974;2022-07-23T05:20:40;101770.84;;;14.57;100.00
59757;BME280;45631;51.962;5.974;2022-07-23T05:23:08;101775.28;;;14.57;100.00
59757;BME280;45631;51.962;5.974;2022-07-23T05:25:38;101781.59;;;14.68;100.00
59757;BME280;45631;51.962;5.974;2022-07-23T05:28:06;101784.03;;;14.72;100.00
59757;BME280;45631;51.962;5.974;2022-07-23T05:30:34;101783.59;;;14.78;100.00
59757;BME280;45631;51.962;5.974;2022-07-23T05:33:02;101791.97;;;14.84;100.00
59757;BME280;45631;51.962;5.974;2022-07-23T05:35:30;101797.28;;;14.97;100.00
59757;BME280;45631;51.962;5.974;2022-07-23T05:37:58;101800.66;;;14.99;100.00
59757;BME280;45631;51.962;5.974;2022-07-23T05:40:26;101796.75;;;15.05;100.00
59757;BME280;45631;51.962;5.974;2022-07-23T05:42:56;101804.94;;;15.15;100.00
59757;BME280;45631;51.962;5.974;2022-07-23T05:45:24;101807.88;;;15.23;100.00
59757;BME280;45631;51.962;5.974;2022-07-23T05:47:53;101810.84;;;15.31;100.00
59757;BME280;45631;51.962;5.974;2022-07-23T05:50:21;101809.47;;;15.38;100.00
59757;BME280;45631;51.962;5.974;2022-07-23T05:52:49;101820.38;;;15.47;100.00
59757;BME280;45631;51.962;5.974;2022-07-23T05:55:18;101822.16;;;15.59;100.00
59757;BME280;45631;51.962;5.974;2022-07-23T05:57:49;101824.25;;;15.67;100.00
59757;BME280;45631;51.962;5.974;2022-07-23T06:00:19;101824.34;;;15.78;100.00
59757;BME280;45631;51.962;5.974;2022-07-23T06:02:47;101822.00;;;15.86;100.00
59757;BME280;45631;51.962;5.974;2022-07-23T06:05:21;101835.34;;;15.98;100.00
59757;BME280;45631;51.962;5.974;2022-07-23T06:07:49;101839.13;;;16.07;100.00
59757;BME280;45631;51.962;5.974;2022-07-23T06:10:17;101828.06;;;16.13;100.00
59757;BME280;45631;51.962;5.974;2022-07-23T06:12:45;101829.81;;;16.25;100.00
59757;BME280;45631;51.962;5.974;2022-07-23T06:15:14;101824.81;;;16.33;100.00
59757;BME280;45631;51.962;5.974;2022-07-23T06:17:43;101824.97;;;16.43;100.00
59757;BME280;45631;51.962;5.974;2022-07-23T06:20:11;101830.19;;;16.56;100.00
59757;BME280;45631;51.962;5.974;2022-07-23T06:22:39;101826.03;;;16.65;100.00
59757;BME280;45631;51.962;5.974;2022-07-23T06:25:08;101831.47;;;16.75;99.65
59757;BME280;45631;51.962;5.974;2022-07-23T06:27:45;101826.19;;;16.86;98.00
59757;BME280;45631;51.962;5.974;2022-07-23T06:30:14;101829.88;;;16.96;99.93
59757;BME280;45631;51.962;5.974;2022-07-23T06:32:46;101827.84;;;17.11;99.65
59757;BME280;45631;51.962;5.974;2022-07-23T06:35:14;101826.78;;;17.25;98.70
59757;BME280;45631;51.962;5.974;2022-07-23T06:37:42;101833.91;;;17.36;97.09
59757;BME280;45631;51.962;5.974;2022-07-23T06:40:13;101831.72;;;17.52;95.99
59757;BME280;45631;51.962;5.974;2022-07-23T06:42:41;101834.50;;;17.62;93.67
59757;BME280;45631;51.962;5.974;2022-07-23T06:45:09;101842.00;;;17.68;91.89
59757;BME280;45631;51.962;5.974;2022-07-23T06:47:38;101838.97;;;17.73;92.40
59757;BME280;45631;51.962;5.974;2022-07-23T06:50:09;101845.84;;;17.76;91.91
59757;BME280;45631;51.962;5.974;2022-07-23T06:52:37;101848.34;;;17.88;89.72
59757;BME280;45631;51.962;5.974;2022-07-23T06:55:09;101857.09;;;18.02;89.95
59757;BME280;45631;51.962;5.974;2022-07-23T06:57:37;101852.47;;;18.15;91.01
59757;BME280;45631;51.962;5.974;2022-07-23T07:00:07;101844.06;;;18.31;92.18
59757;BME280;45631;51.962;5.974;2022-07-23T07:02:35;101848.50;;;18.42;88.77
59757;BME280;45631;51.962;5.974;2022-07-23T07:05:04;101849.28;;;18.54;86.37
59757;BME280;45631;51.962;5.974;2022-07-23T07:07:34;101856.59;;;18.73;88.31
59757;BME280;45631;51.962;5.974;2022-07-23T07:10:02;101864.16;;;18.89;86.15
59757;BME280;45631;51.962;5.974;2022-07-23T07:12:30;101855.53;;;18.97;83.71
59757;BME280;45631;51.962;5.974;2022-07-23T07:14:58;101853.50;;;19.10;83.72
59757;BME280;45631;51.962;5.974;2022-07-23T07:17:26;101856.41;;;19.28;84.67
59757;BME280;45631;51.962;5.974;2022-07-23T07:19:55;101843.44;;;19.45;85.18
59757;BME280;45631;51.962;5.974;2022-07-23T07:22:23;101854.97;;;19.55;83.31
59757;BME280;45631;51.962;5.974;2022-07-23T07:24:52;101849.94;;;19.62;78.79
59757;BME280;45631;51.962;5.974;2022-07-23T07:27:20;101847.59;;;19.68;76.51
59757;BME280;45631;51.962;5.974;2022-07-23T07:29:48;101853.56;;;19.91;78.67
59757;BME280;45631;51.962;5.974;2022-07-23T07:32:16;101851.94;;;20.10;76.19
59757;BME280;45631;51.962;5.974;2022-07-23T07:35:05;101849.56;;;20.36;74.22
59757;BME280;45631;51.962;5.974;2022-07-23T07:37:33;101847.75;;;20.47;77.04
59757;BME280;45631;51.962;5.974;2022-07-23T07:40:03;101855.31;;;20.61;73.74
59757;BME280;45631;51.962;5.974;2022-07-23T07:42:32;101855.06;;;20.44;70.14
59757;BME280;45631;51.962;5.974;2022-07-23T07:45:00;101856.03;;;20.63;70.61
59757;BME280;45631;51.962;5.974;2022-07-23T07:47:28;101855.63;;;20.77;70.46
59757;BME280;45631;51.962;5.974;2022-07-23T07:49:56;101853.06;;;20.86;70.24
59757;BME280;45631;51.962;5.974;2022-07-23T07:52:24;101851.91;;;21.18;71.02
59757;BME280;45631;51.962;5.974;2022-07-23T07:54:52;101859.72;;;21.29;70.10
59757;BME280;45631;51.962;5.974;2022-07-23T07:57:22;101860.69;;;21.38;68.13
59757;BME280;45631;51.962;5.974;2022-07-23T07:59:51;101868.13;;;21.44;67.64
59757;BME280;45631;51.962;5.974;2022-07-23T08:02:22;101871.59;;;21.64;66.35
59757;BME280;45631;51.962;5.974;2022-07-23T08:04:51;101873.31;;;21.65;64.57
59757;BME280;45631;51.962;5.974;2022-07-23T08:07:19;101879.84;;;21.81;64.08
59757;BME280;45631;51.962;5.974;2022-07-23T08:09:47;101875.56;;;21.88;64.31
59757;BME280;45631;51.962;5.974;2022-07-23T08:12:15;101876.88;;;22.02;63.63
59757;BME280;45631;51.962;5.974;2022-07-23T08:14:45;101880.81;;;22.07;63.61
59757;BME280;45631;51.962;5.974;2022-07-23T08:17:13;101876.41;;;22.34;63.37
59757;BME280;45631;51.962;5.974;2022-07-23T08:19:41;101882.56;;;22.44;61.97
59757;BME280;45631;51.962;5.974;2022-07-23T08:22:09;101870.78;;;22.27;59.89
59757;BME280;45631;51.962;5.974;2022-07-23T08:24:37;101864.53;;;22.55;61.49
59757;BME280;45631;51.962;5.974;2022-07-23T08:27:05;101875.47;;;22.79;58.89
59757;BME280;45631;51.962;5.974;2022-07-23T08:29:33;101872.31;;;22.84;60.45
59757;BME280;45631;51.962;5.974;2022-07-23T08:32:03;101880.00;;;23.05;59.88
59757;BME280;45631;51.962;5.974;2022-07-23T08:34:52;101874.81;;;23.04;58.24
59757;BME280;45631;51.962;5.974;2022-07-23T08:37:20;101883.28;;;22.91;58.95
59757;BME280;45631;51.962;5.974;2022-07-23T08:39:48;101883.28;;;22.91;57.86
59757;BME280;45631;51.962;5.974;2022-07-23T08:42:16;101878.56;;;23.11;58.19
59757;BME280;45631;51.962;5.974;2022-07-23T08:44:45;101876.88;;;23.10;58.81
59757;BME280;45631;51.962;5.974;2022-07-23T08:47:15;101882.75;;;23.32;57.51
59757;BME280;45631;51.962;5.974;2022-07-23T08:49:44;101884.19;;;23.52;57.04
59757;BME280;45631;51.962;5.974;2022-07-23T08:52:14;101884.88;;;23.28;57.63
59757;BME280;45631;51.962;5.974;2022-07-23T08:54:43;101882.50;;;23.51;56.49
59757;BME280;45631;51.962;5.974;2022-07-23T08:57:11;101891.44;;;23.68;56.47
59757;BME280;45631;51.962;5.974;2022-07-23T08:59:40;101882.03;;;23.64;55.20
59757;BME280;45631;51.962;5.974;2022-07-23T09:02:08;101883.75;;;23.73;56.14
59757;BME280;45631;51.962;5.974;2022-07-23T09:04:38;101875.03;;;23.71;54.07
59757;BME280;45631;51.962;5.974;2022-07-23T09:07:06;101876.13;;;23.95;57.31
59757;BME280;45631;51.962;5.974;2022-07-23T09:09:35;101872.66;;;24.11;54.03
59757;BME280;45631;51.962;5.974;2022-07-23T09:12:05;101876.22;;;24.44;53.20
59757;BME280;45631;51.962;5.974;2022-07-23T09:14:38;101878.13;;;24.69;53.38
59757;BME280;45631;51.962;5.974;2022-07-23T09:17:11;101879.28;;;24.66;52.79
59757;BME280;45631;51.962;5.974;2022-07-23T09:19:41;101865.97;;;25.06;53.83
59757;BME280;45631;51.962;5.974;2022-07-23T09:22:23;101872.53;;;25.03;52.19
59757;BME280;45631;51.962;5.974;2022-07-23T09:25:06;101873.69;;;25.34;51.64
59757;BME280;45631;51.962;5.974;2022-07-23T09:27:52;101870.88;;;25.02;49.20
59757;BME280;45631;51.962;5.974;2022-07-23T09:30:22;101876.22;;;25.19;49.92
59757;BME280;45631;51.962;5.974;2022-07-23T09:33:05;101876.38;;;25.25;48.75
59757;BME280;45631;51.962;5.974;2022-07-23T09:35:51;101879.91;;;25.34;49.96
59757;BME280;45631;51.962;5.974;2022-07-23T09:38:21;101883.25;;;25.84;52.00
59757;BME280;45631;51.962;5.974;2022-07-23T09:41:05;101884.50;;;26.05;48.03
59757;BME280;45631;51.962;5.974;2022-07-23T09:43:34;101885.31;;;26.05;48.16
59757;BME280;45631;51.962;5.974;2022-07-23T09:46:19;101883.09;;;26.40;48.22
59757;BME280;45631;51.962;5.974;2022-07-23T09:48:48;101880.44;;;26.55;46.96
59757;BME280;45631;51.962;5.974;2022-07-23T09:51:17;101876.25;;;26.53;45.61
59757;BME280;45631;51.962;5.974;2022-07-23T09:53:47;101885.91;;;26.70;45.20
59757;BME280;45631;51.962;5.974;2022-07-23T09:56:16;101885.22;;;26.68;44.96
59757;BME280;45631;51.962;5.974;2022-07-23T09:58:50;101871.88;;;26.90;45.24
59757;BME280;45631;51.962;5.974;2022-07-23T10:01:19;101880.75;;;26.84;44.66
59757;BME280;45631;51.962;5.974;2022-07-23T10:03:48;101886.53;;;27.25;45.47
59757;BME280;45631;51.962;5.974;2022-07-23T10:06:18;101881.69;;;27.06;43.36
59757;BME280;45631;51.962;5.974;2022-07-23T10:08:48;101879.91;;;26.98;44.50
59757;BME280;45631;51.962;5.974;2022-07-23T10:11:17;101874.06;;;27.09;43.96
59757;BME280;45631;51.962;5.974;2022-07-23T10:13:45;101873.31;;;27.15;42.56
59757;BME280;45631;51.962;5.974;2022-07-23T10:16:21;101874.63;;;27.35;43.25
59757;BME280;45631;51.962;5.974;2022-07-23T10:18:53;101870.00;;;27.58;43.65
59757;BME280;45631;51.962;5.974;2022-07-23T10:21:27;101862.06;;;27.57;42.06
59757;BME280;45631;51.962;5.974;2022-07-23T10:24:08;101864.50;;;27.52;41.11
59757;BME280;45631;51.962;5.974;2022-07-23T10:26:45;101856.50;;;27.28;41.08
59757;BME280;45631;51.962;5.974;2022-07-23T10:29:24;101859.00;;;27.60;43.08
59757;BME280;45631;51.962;5.974;2022-07-23T10:32:06;101861.94;;;27.65;39.51
59757;BME280;45631;51.962;5.974;2022-07-23T10:34:41;101859.50;;;27.85;42.20
59757;BME280;45631;51.962;5.974;2022-07-23T10:37:17;101856.03;;;28.06;40.71
59757;BME280;45631;51.962;5.974;2022-07-23T10:40:08;101867.59;;;27.85;40.29
59757;BME280;45631;51.962;5.974;2022-07-23T10:42:37;101867.03;;;28.05;41.61
59757;BME280;45631;51.962;5.974;2022-07-23T10:45:26;101853.00;;;28.16;38.81
59757;BME280;45631;51.962;5.974;2022-07-23T10:47:55;101852.66;;;28.47;37.94
59757;BME280;45631;51.962;5.974;2022-07-23T10:50:25;101852.53;;;28.12;38.92
59757;BME280;45631;51.962;5.974;2022-07-23T10:53:15;101858.34;;;28.09;38.78
59757;BME280;45631;51.962;5.974;2022-07-23T10:55:49;101857.69;;;28.07;40.29
59757;BME280;45631;51.962;5.974;2022-07-23T10:58:23;101856.50;;;28.60;40.58
59757;BME280;45631;51.962;5.974;2022-07-23T11:03:56;101860.88;;;28.82;38.76
59757;BME280;45631;51.962;5.974;2022-07-23T11:09:30;101853.94;;;29.02;38.80
59757;BME280;45631;51.962;5.974;2022-07-23T11:15:08;101859.63;;;29.48;38.35
59757;BME280;45631;51.962;5.974;2022-07-23T11:17:38;101856.97;;;29.62;35.58
59757;BME280;45631;51.962;5.974;2022-07-23T11:20:17;101856.06;;;29.96;38.38
59757;BME280;45631;51.962;5.974;2022-07-23T11:22:50;101859.19;;;29.45;36.86
59757;BME280;45631;51.962;5.974;2022-07-23T11:25:33;101851.56;;;29.62;37.18
59757;BME280;45631;51.962;5.974;2022-07-23T11:28:13;101854.84;;;29.50;36.50
59757;BME280;45631;51.962;5.974;2022-07-23T11:30:43;101856.69;;;29.92;37.83
59757;BME280;45631;51.962;5.974;2022-07-23T11:33:21;101856.69;;;29.98;36.21
59757;BME280;45631;51.962;5.974;2022-07-23T11:36:00;101859.66;;;30.30;37.44
59757;BME280;45631;51.962;5.974;2022-07-23T11:38:31;101865.25;;;30.09;35.41
59757;BME280;45631;51.962;5.974;2022-07-23T11:41:01;101858.22;;;29.59;35.20
59757;BME280;45631;51.962;5.974;2022-07-23T11:43:29;101858.28;;;29.31;35.39
59757;BME280;45631;51.962;5.974;2022-07-23T11:45:59;101857.72;;;29.91;36.24
59757;BME280;45631;51.962;5.974;2022-07-23T11:48:28;101857.78;;;30.24;36.14
59757;BME280;45631;51.962;5.974;2022-07-23T11:50:57;101848.16;;;30.08;34.33
59757;BME280;45631;51.962;5.974;2022-07-23T11:53:27;101847.78;;;30.31;34.53
59757;BME280;45631;51.962;5.974;2022-07-23T11:56:04;101842.97;;;30.80;34.62
59757;BME280;45631;51.962;5.974;2022-07-23T11:58:33;101844.25;;;30.71;33.18
59757;BME280;45631;51.962;5.974;2022-07-23T12:01:01;101840.03;;;31.02;34.57
59757;BME280;45631;51.962;5.974;2022-07-23T12:03:29;101839.81;;;30.90;33.08
59757;BME280;45631;51.962;5.974;2022-07-23T12:05:59;101851.72;;;31.16;33.69
59757;BME280;45631;51.962;5.974;2022-07-23T12:08:27;101849.38;;;31.19;31.40
59757;BME280;45631;51.962;5.974;2022-07-23T12:10:56;101845.03;;;30.98;33.32
59757;BME280;45631;51.962;5.974;2022-07-23T12:13:25;101844.22;;;30.98;32.79
59757;BME280;45631;51.962;5.974;2022-07-23T12:15:56;101849.44;;;30.93;32.22
59757;BME280;45631;51.962;5.974;2022-07-23T12:18:26;101844.81;;;31.13;34.27
59757;BME280;45631;51.962;5.974;2022-07-23T12:20:55;101848.72;;;31.31;33.78
59757;BME280;45631;51.962;5.974;2022-07-23T12:23:26;101849.09;;;31.41;33.32
59757;BME280;45631;51.962;5.974;2022-07-23T12:25:54;101845.81;;;31.26;32.89
59757;BME280;45631;51.962;5.974;2022-07-23T12:28:29;101843.50;;;31.36;35.54
59757;BME280;45631;51.962;5.974;2022-07-23T12:30:58;101850.03;;;31.74;33.70
59757;BME280;45631;51.962;5.974;2022-07-23T12:33:28;101847.53;;;32.04;32.11
59757;BME280;45631;51.962;5.974;2022-07-23T12:35:57;101844.06;;;32.29;30.85
59757;BME280;45631;51.962;5.974;2022-07-23T12:38:28;101845.53;;;31.93;31.33
59757;BME280;45631;51.962;5.974;2022-07-23T12:41:03;101846.31;;;31.55;32.03
59757;BME280;45631;51.962;5.974;2022-07-23T12:43:36;101835.56;;;32.12;32.56
59757;BME280;45631;51.962;5.974;2022-07-23T12:46:05;101841.75;;;32.26;33.79
59757;BME280;45631;51.962;5.974;2022-07-23T12:48:36;101837.25;;;32.38;33.07
59757;BME280;45631;51.962;5.974;2022-07-23T12:51:05;101835.72;;;32.24;31.88
59757;BME280;45631;51.962;5.974;2022-07-23T12:53:38;101836.22;;;32.39;31.39
59757;BME280;45631;51.962;5.974;2022-07-23T12:56:09;101833.19;;;32.29;32.29
59757;BME280;45631;51.962;5.974;2022-07-23T12:58:45;101831.22;;;32.04;32.17
59757;BME280;45631;51.962;5.974;2022-07-23T13:01:29;101827.38;;;32.18;32.14
59757;BME280;45631;51.962;5.974;2022-07-23T13:04:02;101827.59;;;32.67;32.30
59757;BME280;45631;51.962;5.974;2022-07-23T13:06:40;101827.25;;;32.57;30.32
59757;BME280;45631;51.962;5.974;2022-07-23T13:09:12;101835.88;;;32.79;29.39